Time,TemperatureF,DewpointF,PressureIn,WindDirection,WindDirectionDegrees,WindSpeedMPH,WindSpeedGustMPH,Humidity,HourlyPrecipIn,Conditions,Clouds,dailyrainin,SoftwareType,DateUTC
2013-02-11 00:00:00,49.9,43.3,29.49,WSW,256,9.0,22.0,78,0.00,,,0.00,Wunderground v.1.15,2013-02-11 06:00:00,
2013-02-11 00:05:00,49.9,43.3,29.49,WSW,253,10.0,22.0,78,0.00,,,0.00,Wunderground v.1.15,2013-02-11 06:05:00,
2013-02-11 00:10:00,49.8,43.2,29.49,SW,235,10.0,10.0,78,0.00,,,0.00,Wunderground v.1.15,2013-02-11 06:10:00,
2013-02-11 00:15:00,49.5,42.9,29.49,WSW,240,9.0,10.0,78,0.00,,,0.00,Wunderground v.1.15,2013-02-11 06:15:00,
2013-02-11 00:20:00,49.1,42.5,29.49,West,265,9.0,9.0,78,0.00,,,0.00,Wunderground v.1.15,2013-02-11 06:20:00,
2013-02-11 00:25:00,48.6,42.4,29.49,SW,231,9.0,9.0,79,0.00,,,0.00,Wunderground v.1.15,2013-02-11 06:25:00,
2013-02-11 00:30:00,48.3,42.1,29.49,WSW,254,10.0,10.0,79,0.00,,,0.00,Wunderground v.1.15,2013-02-11 06:30:00,
2013-02-11 00:35:00,48.2,41.7,29.49,WSW,252,11.0,11.0,78,0.00,,,0.00,Wunderground v.1.15,2013-02-11 06:35:00,
2013-02-11 00:40:00,47.9,39.3,29.49,West,267,13.0,13.0,72,0.00,,,0.00,Wunderground v.1.15,2013-02-11 06:40:00,
2013-02-11 00:45:00,47.6,39.0,29.49,West,260,13.0,13.0,72,0.00,,,0.00,Wunderground v.1.15,2013-02-11 06:45:00,
2013-02-11 00:50:00,47.6,39.0,29.49,WSW,254,12.0,22.0,72,0.00,,,0.00,Wunderground v.1.15,2013-02-11 06:50:00,
2013-02-11 01:00:00,47.6,39.4,29.48,West,261,10.0,13.0,73,0.00,,,0.00,Wunderground v.1.15,2013-02-11 07:00:00,
2013-02-11 01:05:00,47.3,38.0,29.48,WSW,248,11.0,13.0,70,0.00,,,0.00,Wunderground v.1.15,2013-02-11 07:05:00,
2013-02-11 01:10:00,47.3,36.9,29.48,WSW,249,13.0,15.0,67,0.00,,,0.00,Wunderground v.1.15,2013-02-11 07:10:00,
2013-02-11 01:15:00,46.8,36.0,29.49,West,268,13.0,15.0,66,0.00,,,0.00,Wunderground v.1.15,2013-02-11 07:15:00,
2013-02-11 01:20:00,46.2,35.5,29.49,West,261,12.0,12.0,66,0.00,,,0.00,Wunderground v.1.15,2013-02-11 07:20:00,
2013-02-11 01:25:00,46.0,35.7,29.49,WSW,242,10.0,12.0,67,0.00,,,0.00,Wunderground v.1.15,2013-02-11 07:25:00,
2013-02-11 01:30:00,45.7,35.4,29.49,WSW,247,10.0,12.0,67,0.00,,,0.00,Wunderground v.1.15,2013-02-11 07:30:00,
2013-02-11 01:35:00,45.5,34.4,29.49,WSW,258,10.0,12.0,65,0.00,,,0.00,Wunderground v.1.15,2013-02-11 07:35:00,
2013-02-11 01:40:00,45.2,33.7,29.49,WSW,257,12.0,12.0,64,0.00,,,0.00,Wunderground v.1.15,2013-02-11 07:40:00,
2013-02-11 01:45:00,44.9,33.5,29.49,WNW,284,12.0,12.0,64,0.00,,,0.00,Wunderground v.1.15,2013-02-11 07:45:00,
2013-02-11 01:50:00,44.8,33.4,29.49,WSW,252,11.0,13.0,64,0.00,,,0.00,Wunderground v.1.15,2013-02-11 07:50:00,
2013-02-11 01:55:00,44.8,33.4,29.49,WSW,248,10.0,13.0,64,0.00,,,0.00,Wunderground v.1.15,2013-02-11 07:55:00,
2013-02-11 02:00:00,44.8,33.4,29.50,WSW,246,9.0,10.0,64,0.00,,,0.00,Wunderground v.1.15,2013-02-11 08:00:00,
2013-02-11 02:10:00,44.6,33.2,29.50,West,267,11.0,20.0,64,0.00,,,0.00,Wunderground v.1.15,2013-02-11 08:10:00,
2013-02-11 02:15:00,44.3,32.9,29.50,West,264,12.0,20.0,64,0.00,,,0.00,Wunderground v.1.15,2013-02-11 08:15:00,
2013-02-11 02:20:00,43.9,32.9,29.50,WSW,241,13.0,13.0,65,0.00,,,0.00,Wunderground v.1.15,2013-02-11 08:20:00,
2013-02-11 02:25:00,43.6,32.6,29.50,WSW,247,13.0,13.0,65,0.00,,,0.00,Wunderground v.1.15,2013-02-11 08:25:00,
2013-02-11 02:30:00,43.3,32.7,29.50,WSW,253,13.0,13.0,66,0.00,,,0.00,Wunderground v.1.15,2013-02-11 08:30:00,
2013-02-11 02:35:00,43.3,32.3,29.50,West,266,13.0,18.0,65,0.00,,,0.00,Wunderground v.1.15,2013-02-11 08:35:00,
2013-02-11 02:45:00,42.8,31.8,29.50,West,269,14.0,18.0,65,0.00,,,0.00,Wunderground v.1.15,2013-02-11 08:45:00,
2013-02-11 02:50:00,42.2,31.3,29.50,WSW,253,14.0,19.0,65,0.00,,,0.00,Wunderground v.1.15,2013-02-11 08:50:00,
2013-02-11 02:55:00,41.8,31.3,29.50,WSW,242,13.0,19.0,66,0.00,,,0.00,Wunderground v.1.15,2013-02-11 08:55:00,
2013-02-11 03:00:00,41.5,31.4,29.50,West,281,13.0,18.0,67,0.00,,,0.00,Wunderground v.1.15,2013-02-11 09:00:00,
2013-02-11 03:05:00,41.2,31.4,29.50,West,276,12.0,18.0,68,0.00,,,0.00,Wunderground v.1.15,2013-02-11 09:05:00,
2013-02-11 03:10:00,40.9,31.1,29.50,West,270,11.0,13.0,68,0.00,,,0.00,Wunderground v.1.15,2013-02-11 09:10:00,
2013-02-11 03:15:00,40.9,31.1,29.51,West,269,12.0,13.0,68,0.00,,,0.00,Wunderground v.1.15,2013-02-11 09:15:00,
2013-02-11 03:20:00,40.6,31.2,29.51,WNW,296,13.0,13.0,69,0.00,,,0.00,Wunderground v.1.15,2013-02-11 09:20:00,
2013-02-11 03:25:00,40.5,31.1,29.51,West,267,12.0,13.0,69,0.00,,,0.00,Wunderground v.1.15,2013-02-11 09:25:00,
2013-02-11 03:30:00,40.3,31.3,29.51,WSW,246,10.0,10.0,70,0.00,,,0.00,Wunderground v.1.15,2013-02-11 09:30:00,
2013-02-11 03:35:00,40.5,30.8,29.51,WSW,244,12.0,19.0,68,0.00,,,0.00,Wunderground v.1.15,2013-02-11 09:35:00,
2013-02-11 03:40:00,40.8,30.3,29.51,WSW,256,16.0,19.0,66,0.00,,,0.00,Wunderground v.1.15,2013-02-11 09:40:00,
2013-02-11 03:45:00,40.5,30.8,29.51,NW,317,16.0,19.0,68,0.00,,,0.00,Wunderground v.1.15,2013-02-11 09:45:00,
2013-02-11 03:50:00,40.1,31.1,29.51,WSW,257,12.0,12.0,70,0.00,,,0.00,Wunderground v.1.15,2013-02-11 09:50:00,
2013-02-11 03:55:00,39.6,31.3,29.51,West,271,10.0,12.0,72,0.00,,,0.00,Wunderground v.1.15,2013-02-11 09:55:00,
2013-02-11 04:00:00,39.3,31.4,29.52,West,281,11.0,13.0,73,0.00,,,0.00,Wunderground v.1.15,2013-02-11 10:00:00,
2013-02-11 04:05:00,39.3,31.4,29.52,WNW,287,13.0,13.0,73,0.00,,,0.00,Wunderground v.1.15,2013-02-11 10:05:00,
2013-02-11 04:10:00,39.2,31.3,29.52,West,266,14.0,14.0,73,0.00,,,0.00,Wunderground v.1.15,2013-02-11 10:10:00,
2013-02-11 04:15:00,38.9,31.3,29.53,West,266,12.0,14.0,74,0.00,,,0.00,Wunderground v.1.15,2013-02-11 10:15:00,
2013-02-11 04:20:00,38.8,31.2,29.53,West,275,10.0,14.0,74,0.00,,,0.00,Wunderground v.1.15,2013-02-11 10:20:00,
2013-02-11 04:25:00,38.6,29.7,29.53,WNW,285,12.0,19.0,70,0.00,,,0.00,Wunderground v.1.15,2013-02-11 10:25:00,
2013-02-11 04:30:00,38.6,30.0,29.53,West,260,14.0,18.0,71,0.00,,,0.00,Wunderground v.1.15,2013-02-11 10:30:00,
2013-02-11 04:35:00,38.6,30.0,29.53,West,260,14.0,21.0,71,0.00,,,0.00,Wunderground v.1.15,2013-02-11 10:35:00,
2013-02-11 04:40:00,38.5,29.9,29.53,WSW,246,14.0,24.0,71,0.00,,,0.00,Wunderground v.1.15,2013-02-11 10:40:00,
2013-02-11 04:45:00,38.3,29.7,29.54,WSW,258,15.0,24.0,71,0.00,,,0.00,Wunderground v.1.15,2013-02-11 10:45:00,
2013-02-11 04:50:00,38.2,29.3,29.54,WNW,292,14.0,14.0,70,0.00,,,0.00,Wunderground v.1.15,2013-02-11 10:50:00,
2013-02-11 04:55:00,38.2,28.6,29.54,West,275,15.0,15.0,68,0.00,,,0.00,Wunderground v.1.15,2013-02-11 10:55:00,
2013-02-11 05:00:00,38.0,28.7,29.54,WNW,285,15.0,15.0,69,0.00,,,0.00,Wunderground v.1.15,2013-02-11 11:00:00,
2013-02-11 05:05:00,37.9,29.0,29.54,West,266,15.0,15.0,70,0.00,,,0.00,Wunderground v.1.15,2013-02-11 11:05:00,
2013-02-11 05:10:00,37.8,29.2,29.54,West,266,14.0,16.0,71,0.00,,,0.00,Wunderground v.1.15,2013-02-11 11:10:00,
2013-02-11 05:15:00,37.5,28.9,29.55,WSW,249,13.0,16.0,71,0.00,,,0.00,Wunderground v.1.15,2013-02-11 11:15:00,
2013-02-11 05:25:00,37.2,28.3,29.55,West,277,13.0,13.0,70,0.00,,,0.00,Wunderground v.1.15,2013-02-11 11:25:00,
2013-02-11 05:30:00,36.9,28.4,29.56,West,273,13.0,24.0,71,0.00,,,0.00,Wunderground v.1.15,2013-02-11 11:30:00,
2013-02-11 05:35:00,36.6,27.7,29.56,WSW,257,14.0,24.0,70,0.00,,,0.00,Wunderground v.1.15,2013-02-11 11:35:00,
2013-02-11 05:40:00,36.3,27.4,29.56,WSW,252,16.0,16.0,70,0.00,,,0.00,Wunderground v.1.15,2013-02-11 11:40:00,
2013-02-11 05:45:00,36.2,27.7,29.56,WSW,250,14.0,16.0,71,0.00,,,0.00,Wunderground v.1.15,2013-02-11 11:45:00,
2013-02-11 05:50:00,36.2,27.7,29.56,West,267,14.0,16.0,71,0.00,,,0.00,Wunderground v.1.15,2013-02-11 11:50:00,
2013-02-11 05:55:00,36.0,27.8,29.56,West,276,14.0,16.0,72,0.00,,,0.00,Wunderground v.1.15,2013-02-11 11:55:00,
2013-02-11 06:00:00,35.9,27.7,29.57,West,273,14.0,16.0,72,0.00,,,0.00,Wunderground v.1.15,2013-02-11 12:00:00,
2013-02-11 06:05:00,35.8,27.3,29.57,WSW,258,15.0,16.0,71,0.00,,,0.00,Wunderground v.1.15,2013-02-11 12:05:00,
2013-02-11 06:10:00,35.8,27.3,29.57,West,275,15.0,15.0,71,0.00,,,0.00,Wunderground v.1.15,2013-02-11 12:10:00,
2013-02-11 06:15:00,35.8,27.3,29.58,West,267,13.0,15.0,71,0.00,,,0.00,Wunderground v.1.15,2013-02-11 12:15:00,
2013-02-11 06:20:00,35.8,27.3,29.58,West,278,14.0,18.0,71,0.00,,,0.00,Wunderground v.1.15,2013-02-11 12:20:00,
2013-02-11 06:25:00,35.8,27.0,29.58,West,265,14.0,18.0,70,0.00,,,0.00,Wunderground v.1.15,2013-02-11 12:25:00,
2013-02-11 06:30:00,35.8,27.0,29.58,West,274,15.0,15.0,70,0.00,,,0.00,Wunderground v.1.15,2013-02-11 12:30:00,
2013-02-11 06:35:00,35.5,26.3,29.58,West,259,14.0,28.0,69,0.00,,,0.00,Wunderground v.1.15,2013-02-11 12:35:00,
2013-02-11 06:40:00,35.3,25.1,29.58,WNW,297,17.0,30.0,66,0.00,,,0.00,Wunderground v.1.15,2013-02-11 12:40:00,
2013-02-11 06:45:00,35.3,24.7,29.59,West,268,19.0,30.0,65,0.00,,,0.00,Wunderground v.1.15,2013-02-11 12:45:00,
2013-02-11 06:50:00,35.3,25.1,29.59,WNW,290,18.0,18.0,66,0.00,,,0.00,Wunderground v.1.15,2013-02-11 12:50:00,
2013-02-11 06:55:00,35.3,24.7,29.59,West,267,18.0,18.0,65,0.00,,,0.00,Wunderground v.1.15,2013-02-11 12:55:00,
2013-02-11 07:00:00,35.2,25.0,29.59,West,270,15.0,16.0,66,0.00,,,0.00,Wunderground v.1.15,2013-02-11 13:00:00,
2013-02-11 07:05:00,35.3,24.3,29.59,WNW,284,15.0,24.0,64,0.00,,,0.00,Wunderground v.1.15,2013-02-11 13:05:00,
2013-02-11 07:15:00,35.3,24.0,29.60,West,265,15.0,21.0,63,0.00,,,0.00,Wunderground v.1.15,2013-02-11 13:15:00,
2013-02-11 07:20:00,35.3,24.0,29.60,West,276,16.0,21.0,63,0.00,,,0.00,Wunderground v.1.15,2013-02-11 13:20:00,
2013-02-11 07:25:00,35.3,23.6,29.60,West,263,16.0,21.0,62,0.00,,,0.00,Wunderground v.1.15,2013-02-11 13:25:00,
2013-02-11 07:30:00,35.2,24.2,29.61,WNW,294,16.0,17.0,64,0.00,,,0.00,Wunderground v.1.15,2013-02-11 13:30:00,
2013-02-11 07:35:00,35.2,23.5,29.61,West,275,18.0,18.0,62,0.00,,,0.00,Wunderground v.1.15,2013-02-11 13:35:00,
2013-02-11 07:40:00,35.2,23.5,29.61,West,267,17.0,17.0,62,0.00,,,0.00,Wunderground v.1.15,2013-02-11 13:40:00,
2013-02-11 07:45:00,35.2,23.9,29.61,West,267,14.0,17.0,63,0.00,,,0.00,Wunderground v.1.15,2013-02-11 13:45:00,
2013-02-11 07:50:00,35.2,23.9,29.61,WNW,287,15.0,20.0,63,0.00,,,0.00,Wunderground v.1.15,2013-02-11 13:50:00,
2013-02-11 07:55:00,35.0,23.7,29.61,West,265,16.0,20.0,63,0.00,,,0.00,Wunderground v.1.15,2013-02-11 13:55:00,
2013-02-11 08:05:00,34.9,23.9,29.62,West,266,16.0,16.0,64,0.00,,,0.00,Wunderground v.1.15,2013-02-11 14:05:00,
2013-02-11 08:10:00,34.9,23.9,29.62,West,272,16.0,23.0,64,0.00,,,0.00,Wunderground v.1.15,2013-02-11 14:10:00,
2013-02-11 08:15:00,34.9,24.3,29.61,WSW,244,15.0,23.0,65,0.00,,,0.00,Wunderground v.1.15,2013-02-11 14:15:00,
2013-02-11 08:20:00,34.9,24.3,29.61,WSW,246,14.0,20.0,65,0.00,,,0.00,Wunderground v.1.15,2013-02-11 14:20:00,
2013-02-11 08:25:00,34.9,24.3,29.61,West,261,15.0,20.0,65,0.00,,,0.00,Wunderground v.1.15,2013-02-11 14:25:00,
2013-02-11 08:30:00,34.9,24.3,29.62,WSW,248,16.0,16.0,65,0.00,,,0.00,Wunderground v.1.15,2013-02-11 14:30:00,
2013-02-11 08:35:00,34.9,24.3,29.62,WSW,240,14.0,16.0,65,0.00,,,0.00,Wunderground v.1.15,2013-02-11 14:35:00,
2013-02-11 08:40:00,34.9,24.3,29.62,WNW,283,14.0,18.0,65,0.00,,,0.00,Wunderground v.1.15,2013-02-11 14:40:00,
2013-02-11 08:45:00,34.9,24.3,29.62,West,273,15.0,18.0,65,0.00,,,0.00,Wunderground v.1.15,2013-02-11 14:45:00,
2013-02-11 08:50:00,34.9,24.3,29.62,WSW,244,15.0,15.0,65,0.00,,,0.00,Wunderground v.1.15,2013-02-11 14:50:00,
2013-02-11 08:55:00,34.9,24.7,29.62,West,261,15.0,15.0,66,0.00,,,0.00,Wunderground v.1.15,2013-02-11 14:55:00,
2013-02-11 09:00:00,34.7,24.5,29.62,West,264,16.0,17.0,66,0.00,,,0.00,Wunderground v.1.15,2013-02-11 15:00:00,
2013-02-11 09:05:00,34.6,24.8,29.62,WSW,248,15.0,17.0,67,0.00,,,0.00,Wunderground v.1.15,2013-02-11 15:05:00,
2013-02-11 09:10:00,34.6,25.1,29.62,WNW,287,14.0,16.0,68,0.00,,,0.00,Wunderground v.1.15,2013-02-11 15:10:00,
2013-02-11 09:15:00,34.6,24.8,29.62,WSW,241,14.0,16.0,67,0.00,,,0.00,Wunderground v.1.15,2013-02-11 15:15:00,
2013-02-11 09:20:00,34.6,25.1,29.62,West,264,15.0,16.0,68,0.00,,,0.00,Wunderground v.1.15,2013-02-11 15:20:00,
2013-02-11 09:25:00,34.6,25.1,29.62,WNW,291,14.0,16.0,68,0.00,,,0.00,Wunderground v.1.15,2013-02-11 15:25:00,
2013-02-11 09:30:00,34.6,25.1,29.63,WNW,284,13.0,13.0,68,0.00,,,0.00,Wunderground v.1.15,2013-02-11 15:30:00,
2013-02-11 09:35:00,34.7,25.2,29.63,West,263,13.0,13.0,68,0.00,,,0.00,Wunderground v.1.15,2013-02-11 15:35:00,
2013-02-11 09:40:00,34.7,25.2,29.63,West,259,13.0,13.0,68,0.00,,,0.00,Wunderground v.1.15,2013-02-11 15:40:00,
2013-02-11 09:45:00,34.9,25.0,29.63,West,271,15.0,16.0,67,0.00,,,0.00,Wunderground v.1.15,2013-02-11 15:45:00,
2013-02-11 09:50:00,34.9,25.0,29.63,West,261,17.0,17.0,67,0.00,,,0.00,Wunderground v.1.15,2013-02-11 15:50:00,
2013-02-11 09:55:00,34.7,24.9,29.63,WNW,292,16.0,18.0,67,0.00,,,0.00,Wunderground v.1.15,2013-02-11 15:55:00,
2013-02-11 10:00:00,34.7,25.2,29.63,WNW,300,14.0,18.0,68,0.00,,,0.00,Wunderground v.1.15,2013-02-11 16:00:00,
2013-02-11 10:05:00,34.7,24.9,29.63,WNW,283,16.0,18.0,67,0.00,,,0.00,Wunderground v.1.15,2013-02-11 16:05:00,
2013-02-11 10:10:00,34.7,24.9,29.63,WSW,244,17.0,17.0,67,0.00,,,0.00,Wunderground v.1.15,2013-02-11 16:10:00,
2013-02-11 10:15:00,34.7,25.2,29.64,West,268,15.0,17.0,68,0.00,,,0.00,Wunderground v.1.15,2013-02-11 16:15:00,
2013-02-11 10:20:00,34.6,25.1,29.64,West,276,14.0,14.0,68,0.00,,,0.00,Wunderground v.1.15,2013-02-11 16:20:00,
2013-02-11 10:25:00,34.6,25.5,29.64,WSW,247,16.0,19.0,69,0.00,,,0.00,Wunderground v.1.15,2013-02-11 16:25:00,
2013-02-11 10:30:00,34.6,25.5,29.65,West,273,17.0,17.0,69,0.00,,,0.00,Wunderground v.1.15,2013-02-11 16:30:00,
2013-02-11 10:35:00,34.6,25.5,29.65,West,266,15.0,17.0,69,0.00,,,0.00,Wunderground v.1.15,2013-02-11 16:35:00,
2013-02-11 10:40:00,34.6,25.8,29.65,West,277,15.0,16.0,70,0.00,,,0.00,Wunderground v.1.15,2013-02-11 16:40:00,
2013-02-11 10:45:00,34.4,25.6,29.66,West,279,17.0,17.0,70,0.00,,,0.00,Wunderground v.1.15,2013-02-11 16:45:00,
2013-02-11 10:50:00,34.4,24.9,29.66,SW,227,18.0,19.0,68,0.00,,,0.00,Wunderground v.1.15,2013-02-11 16:50:00,
2013-02-11 10:55:00,34.4,24.9,29.66,WSW,248,19.0,19.0,68,0.00,,,0.00,Wunderground v.1.15,2013-02-11 16:55:00,
2013-02-11 11:00:00,34.3,25.5,29.66,West,267,16.0,16.0,70,0.00,,,0.00,Wunderground v.1.15,2013-02-11 17:00:00,
2013-02-11 11:05:00,34.3,25.9,29.66,West,265,14.0,16.0,71,0.00,,,0.00,Wunderground v.1.15,2013-02-11 17:05:00,
2013-02-11 11:10:00,34.3,26.2,29.66,WSW,244,13.0,13.0,72,0.00,,,0.00,Wunderground v.1.15,2013-02-11 17:10:00,
2013-02-11 11:15:00,34.0,25.9,29.67,West,271,14.0,28.0,72,0.00,,,0.00,Wunderground v.1.15,2013-02-11 17:15:00,
2013-02-11 11:20:00,34.1,25.0,29.67,West,279,18.0,18.0,69,0.00,,,0.00,Wunderground v.1.15,2013-02-11 17:20:00,
2013-02-11 11:25:00,34.3,25.5,29.67,West,277,18.0,18.0,70,0.00,,,0.00,Wunderground v.1.15,2013-02-11 17:25:00,
2013-02-11 11:30:00,34.1,23.9,29.67,West,275,17.0,20.0,66,0.00,,,0.00,Wunderground v.1.15,2013-02-11 17:30:00,
2013-02-11 11:35:00,34.1,25.3,29.67,West,270,17.0,20.0,70,0.00,,,0.00,Wunderground v.1.15,2013-02-11 17:35:00,
2013-02-11 11:40:00,34.0,25.2,29.67,WNW,290,18.0,18.0,70,0.00,,,0.00,Wunderground v.1.15,2013-02-11 17:40:00,
2013-02-11 11:45:00,34.1,25.3,29.67,West,281,16.0,18.0,70,0.00,,,0.00,Wunderground v.1.15,2013-02-11 17:45:00,
2013-02-11 11:50:00,34.3,25.2,29.67,West,277,14.0,19.0,69,0.00,,,0.00,Wunderground v.1.15,2013-02-11 17:50:00,
2013-02-11 11:55:00,34.3,25.2,29.67,WNW,286,14.0,19.0,69,0.00,,,0.00,Wunderground v.1.15,2013-02-11 17:55:00,
2013-02-11 12:00:00,34.3,24.8,29.67,West,265,16.0,17.0,68,0.00,,,0.00,Wunderground v.1.15,2013-02-11 18:00:00,
2013-02-11 12:05:00,34.3,24.8,29.67,West,270,16.0,17.0,68,0.00,,,0.00,Wunderground v.1.15,2013-02-11 18:05:00,
2013-02-11 12:10:00,34.3,25.2,29.67,West,267,16.0,19.0,69,0.00,,,0.00,Wunderground v.1.15,2013-02-11 18:10:00,
2013-02-11 12:15:00,34.3,24.8,29.67,West,269,16.0,28.0,68,0.00,,,0.00,Wunderground v.1.15,2013-02-11 18:15:00,
2013-02-11 12:20:00,34.1,25.0,29.67,WSW,256,16.0,16.0,69,0.00,,,0.00,Wunderground v.1.15,2013-02-11 18:20:00,
2013-02-11 12:25:00,34.1,25.0,29.67,West,262,16.0,16.0,69,0.00,,,0.00,Wunderground v.1.15,2013-02-11 18:25:00,
2013-02-11 12:30:00,34.0,25.2,29.69,West,269,14.0,14.0,70,0.00,,,0.00,Wunderground v.1.15,2013-02-11 18:30:00,
2013-02-11 12:35:00,34.0,24.9,29.69,West,271,15.0,24.0,69,0.00,,,0.00,Wunderground v.1.15,2013-02-11 18:35:00,
2013-02-11 12:40:00,34.1,25.0,29.69,West,275,16.0,16.0,69,0.00,,,0.00,Wunderground v.1.15,2013-02-11 18:40:00,
2013-02-11 12:45:00,34.1,25.0,29.70,NW,311,16.0,16.0,69,0.00,,,0.00,Wunderground v.1.15,2013-02-11 18:45:00,
2013-02-11 12:50:00,34.1,25.3,29.70,West,272,15.0,15.0,70,0.00,,,0.00,Wunderground v.1.15,2013-02-11 18:50:00,
2013-02-11 12:55:00,34.3,25.5,29.70,WNW,285,14.0,15.0,70,0.00,,,0.00,Wunderground v.1.15,2013-02-11 18:55:00,
2013-02-11 13:00:00,34.3,25.5,29.70,West,263,15.0,15.0,70,0.00,,,0.00,Wunderground v.1.15,2013-02-11 19:00:00,
2013-02-11 13:05:00,34.3,25.9,29.70,WNW,286,14.0,17.0,71,0.00,,,0.00,Wunderground v.1.15,2013-02-11 19:05:00,
2013-02-11 13:10:00,34.3,25.5,29.70,West,277,15.0,15.0,70,0.00,,,0.00,Wunderground v.1.15,2013-02-11 19:10:00,
2013-02-11 13:15:00,34.3,25.2,29.71,WNW,296,16.0,16.0,69,0.00,,,0.00,Wunderground v.1.15,2013-02-11 19:15:00,
2013-02-11 13:20:00,34.3,25.2,29.71,WSW,256,16.0,16.0,69,0.00,,,0.00,Wunderground v.1.15,2013-02-11 19:20:00,
2013-02-11 13:25:00,34.3,25.5,29.71,West,280,15.0,16.0,70,0.00,,,0.00,Wunderground v.1.15,2013-02-11 19:25:00,
2013-02-11 13:30:00,34.3,25.5,29.71,WNW,294,16.0,16.0,70,0.00,,,0.00,Wunderground v.1.15,2013-02-11 19:30:00,
2013-02-11 13:35:00,34.1,25.3,29.71,WNW,302,16.0,16.0,70,0.00,,,0.00,Wunderground v.1.15,2013-02-11 19:35:00,
2013-02-11 13:40:00,34.1,25.7,29.71,West,263,15.0,15.0,71,0.00,,,0.00,Wunderground v.1.15,2013-02-11 19:40:00,
2013-02-11 13:45:00,34.0,25.2,29.72,West,269,15.0,17.0,70,0.00,,,0.00,Wunderground v.1.15,2013-02-11 19:45:00,
2013-02-11 13:50:00,34.0,25.2,29.72,West,271,16.0,18.0,70,0.00,,,0.00,Wunderground v.1.15,2013-02-11 19:50:00,
2013-02-11 13:55:00,33.8,25.4,29.72,WNW,294,15.0,18.0,71,0.00,,,0.00,Wunderground v.1.15,2013-02-11 19:55:00,
2013-02-11 14:00:00,33.8,25.0,29.72,WNW,283,16.0,16.0,70,0.00,,,0.00,Wunderground v.1.15,2013-02-11 20:00:00,
2013-02-11 14:10:00,33.7,25.3,29.72,West,276,15.0,21.0,71,0.00,,,0.00,Wunderground v.1.15,2013-02-11 20:10:00,
2013-02-11 14:15:00,33.7,25.0,29.73,WNW,292,16.0,21.0,70,0.00,,,0.00,Wunderground v.1.15,2013-02-11 20:15:00,
2013-02-11 14:20:00,33.7,25.0,29.73,WSW,246,16.0,17.0,70,0.00,,,0.00,Wunderground v.1.15,2013-02-11 20:20:00,
2013-02-11 14:25:00,33.7,25.0,29.73,WNW,290,15.0,17.0,70,0.00,,,0.00,Wunderground v.1.15,2013-02-11 20:25:00,
2013-02-11 14:30:00,33.5,24.8,29.74,West,274,15.0,15.0,70,0.00,,,0.00,Wunderground v.1.15,2013-02-11 20:30:00,
2013-02-11 14:35:00,33.5,24.4,29.74,WNW,284,16.0,16.0,69,0.00,,,0.00,Wunderground v.1.15,2013-02-11 20:35:00,
2013-02-11 14:40:00,33.4,24.0,29.74,West,267,18.0,18.0,68,0.00,,,0.00,Wunderground v.1.15,2013-02-11 20:40:00,
2013-02-11 14:45:00,33.4,24.3,29.75,WNW,298,17.0,18.0,69,0.00,,,0.00,Wunderground v.1.15,2013-02-11 20:45:00,
2013-02-11 14:50:00,33.2,24.1,29.75,WNW,289,16.0,17.0,69,0.00,,,0.00,Wunderground v.1.15,2013-02-11 20:50:00,
2013-02-11 14:55:00,33.2,23.8,29.75,WNW,285,15.0,17.0,68,0.00,,,0.00,Wunderground v.1.15,2013-02-11 20:55:00,
2013-02-11 15:00:00,33.2,24.1,29.76,WNW,301,14.0,14.0,69,0.00,,,0.00,Wunderground v.1.15,2013-02-11 21:00:00,
2013-02-11 15:05:00,33.2,23.8,29.76,West,268,16.0,16.0,68,0.00,,,0.00,Wunderground v.1.15,2013-02-11 21:05:00,
2013-02-11 15:10:00,33.2,24.1,29.76,West,271,14.0,14.0,69,0.00,,,0.00,Wunderground v.1.15,2013-02-11 21:10:00,
2013-02-11 15:15:00,33.2,24.1,29.77,WNW,302,13.0,14.0,69,0.00,,,0.00,Wunderground v.1.15,2013-02-11 21:15:00,
2013-02-11 15:20:00,33.2,24.1,29.77,West,269,13.0,13.0,69,0.00,,,0.00,Wunderground v.1.15,2013-02-11 21:20:00,
2013-02-11 15:25:00,33.2,23.8,29.77,WNW,292,14.0,14.0,68,0.00,,,0.00,Wunderground v.1.15,2013-02-11 21:25:00,
2013-02-11 15:30:00,33.2,23.8,29.78,West,263,15.0,19.0,68,0.00,,,0.00,Wunderground v.1.15,2013-02-11 21:30:00,
2013-02-11 15:35:00,33.1,24.0,29.78,WNW,284,14.0,23.0,69,0.00,,,0.00,Wunderground v.1.15,2013-02-11 21:35:00,
2013-02-11 15:40:00,32.9,23.8,29.78,WNW,289,15.0,19.0,69,0.00,,,0.00,Wunderground v.1.15,2013-02-11 21:40:00,
2013-02-11 15:45:00,32.9,23.8,29.79,West,273,15.0,31.0,69,0.00,,,0.00,Wunderground v.1.15,2013-02-11 21:45:00,
2013-02-11 15:50:00,32.8,23.7,29.79,WNW,289,13.0,16.0,69,0.00,,,0.00,Wunderground v.1.15,2013-02-11 21:50:00,
2013-02-11 15:55:00,32.9,23.5,29.79,WNW,286,13.0,16.0,68,0.00,,,0.00,Wunderground v.1.15,2013-02-11 21:55:00,
2013-02-11 16:00:00,32.9,23.8,29.79,West,279,12.0,12.0,69,0.00,,,0.00,Wunderground v.1.15,2013-02-11 22:00:00,
2013-02-11 16:05:00,32.9,23.5,29.79,WNW,297,14.0,14.0,68,0.00,,,0.00,Wunderground v.1.15,2013-02-11 22:05:00,
2013-02-11 16:10:00,32.9,23.8,29.79,West,261,13.0,17.0,69,0.00,,,0.00,Wunderground v.1.15,2013-02-11 22:10:00,
2013-02-11 16:20:00,32.8,24.1,29.80,NW,304,12.0,13.0,70,0.00,,,0.00,Wunderground v.1.15,2013-02-11 22:20:00,
2013-02-11 16:25:00,32.7,24.3,29.80,WNW,287,13.0,13.0,71,0.00,,,0.00,Wunderground v.1.15,2013-02-11 22:25:00,
2013-02-11 16:30:00,32.5,23.8,29.81,West,273,13.0,13.0,70,0.00,,,0.00,Wunderground v.1.15,2013-02-11 22:30:00,
2013-02-11 16:35:00,32.7,24.3,29.81,WNW,284,12.0,13.0,71,0.00,,,0.00,Wunderground v.1.15,2013-02-11 22:35:00,
2013-02-11 16:40:00,32.7,23.6,29.81,NW,314,12.0,17.0,69,0.00,,,0.00,Wunderground v.1.15,2013-02-11 22:40:00,
2013-02-11 16:45:00,32.8,24.1,29.82,WNW,283,12.0,17.0,70,0.00,,,0.00,Wunderground v.1.15,2013-02-11 22:45:00,
2013-02-11 16:50:00,32.7,24.0,29.82,WNW,292,11.0,11.0,70,0.00,,,0.00,Wunderground v.1.15,2013-02-11 22:50:00,
2013-02-11 16:55:00,32.7,24.0,29.82,WNW,284,10.0,11.0,70,0.00,,,0.00,Wunderground v.1.15,2013-02-11 22:55:00,
2013-02-11 17:00:00,32.5,23.5,29.82,West,267,12.0,13.0,69,0.00,,,0.00,Wunderground v.1.15,2013-02-11 23:00:00,
2013-02-11 17:05:00,32.5,23.1,29.82,West,277,13.0,13.0,68,0.00,,,0.00,Wunderground v.1.15,2013-02-11 23:05:00,
2013-02-11 17:10:00,32.5,22.8,29.82,NW,307,12.0,14.0,67,0.00,,,0.00,Wunderground v.1.15,2013-02-11 23:10:00,
2013-02-11 17:15:00,32.5,23.1,29.84,West,278,12.0,14.0,68,0.00,,,0.00,Wunderground v.1.15,2013-02-11 23:15:00,
2013-02-11 17:20:00,32.4,23.4,29.84,NW,307,11.0,12.0,69,0.00,,,0.00,Wunderground v.1.15,2013-02-11 23:20:00,
2013-02-11 17:25:00,32.4,23.0,29.84,WNW,299,10.0,16.0,68,0.00,,,0.00,Wunderground v.1.15,2013-02-11 23:25:00,
2013-02-11 17:30:00,32.4,22.7,29.84,WNW,285,13.0,13.0,67,0.00,,,0.00,Wunderground v.1.15,2013-02-11 23:30:00,
2013-02-11 17:35:00,32.4,22.7,29.84,North,355,13.0,13.0,67,0.00,,,0.00,Wunderground v.1.15,2013-02-11 23:35:00,
2013-02-11 17:40:00,32.2,22.1,29.84,NNW,331,13.0,15.0,66,0.00,,,0.00,Wunderground v.1.15,2013-02-11 23:40:00,
2013-02-11 17:45:00,32.2,22.1,29.85,WNW,296,13.0,15.0,66,0.00,,,0.00,Wunderground v.1.15,2013-02-11 23:45:00,
2013-02-11 17:50:00,32.2,21.4,29.85,NW,310,12.0,12.0,64,0.00,,,0.00,Wunderground v.1.15,2013-02-11 23:50:00,
2013-02-11 17:55:00,32.4,22.7,29.85,NW,313,11.0,18.0,67,0.00,,,0.00,Wunderground v.1.15,2013-02-11 23:55:00,
2013-02-11 18:00:00,32.4,23.0,29.86,West,277,11.0,11.0,68,0.00,,,0.00,Wunderground v.1.15,2013-02-12 00:00:00,
2013-02-11 18:10:00,32.4,22.7,29.86,West,269,11.0,11.0,67,0.00,,,0.00,Wunderground v.1.15,2013-02-12 00:10:00,
2013-02-11 18:15:00,32.2,22.1,29.87,NW,312,11.0,11.0,66,0.00,,,0.00,Wunderground v.1.15,2013-02-12 00:15:00,
2013-02-11 18:20:00,32.1,21.3,29.87,NW,304,13.0,15.0,64,0.00,,,0.00,Wunderground v.1.15,2013-02-12 00:20:00,
2013-02-11 18:25:00,32.2,22.1,29.87,NW,319,14.0,17.0,66,0.00,,,0.00,Wunderground v.1.15,2013-02-12 00:25:00,
2013-02-11 18:30:00,32.1,21.7,29.87,NW,312,14.0,14.0,65,0.00,,,0.00,Wunderground v.1.15,2013-02-12 00:30:00,
2013-02-11 18:35:00,32.1,22.0,29.87,NW,319,14.0,14.0,66,0.00,,,0.00,Wunderground v.1.15,2013-02-12 00:35:00,
2013-02-11 18:40:00,32.1,22.4,29.87,NNW,340,12.0,12.0,67,0.00,,,0.00,Wunderground v.1.15,2013-02-12 00:40:00,
2013-02-11 18:45:00,31.9,21.8,29.88,WSW,252,11.0,12.0,66,0.00,,,0.00,Wunderground v.1.15,2013-02-12 00:45:00,
2013-02-11 18:50:00,31.9,22.2,29.88,NW,317,11.0,11.0,67,0.00,,,0.00,Wunderground v.1.15,2013-02-12 00:50:00,
2013-02-11 18:55:00,31.9,21.8,29.88,NNW,336,11.0,11.0,66,0.00,,,0.00,Wunderground v.1.15,2013-02-12 00:55:00,
2013-02-11 19:00:00,31.9,21.8,29.89,NW,307,13.0,14.0,66,0.00,,,0.00,Wunderground v.1.15,2013-02-12 01:00:00,
2013-02-11 19:05:00,31.9,21.5,29.89,NNW,337,13.0,14.0,65,0.00,,,0.00,Wunderground v.1.15,2013-02-12 01:05:00,
2013-02-11 19:10:00,31.9,21.5,29.89,NW,317,13.0,13.0,65,0.00,,,0.00,Wunderground v.1.15,2013-02-12 01:10:00,
2013-02-11 19:15:00,31.9,21.5,29.89,NNW,336,14.0,14.0,65,0.00,,,0.00,Wunderground v.1.15,2013-02-12 01:15:00,
2013-02-11 19:20:00,31.9,22.2,29.89,WNW,296,14.0,17.0,67,0.00,,,0.00,Wunderground v.1.15,2013-02-12 01:20:00,
2013-02-11 19:25:00,31.9,22.2,29.89,WNW,299,13.0,17.0,67,0.00,,,0.00,Wunderground v.1.15,2013-02-12 01:25:00,
2013-02-11 19:30:00,31.9,21.8,29.89,NW,319,13.0,18.0,66,0.00,,,0.00,Wunderground v.1.15,2013-02-12 01:30:00,
2013-02-11 19:35:00,31.8,21.4,29.89,NW,311,13.0,18.0,65,0.00,,,0.00,Wunderground v.1.15,2013-02-12 01:35:00,
2013-02-11 19:40:00,31.8,21.7,29.89,WNW,288,11.0,11.0,66,0.00,,,0.00,Wunderground v.1.15,2013-02-12 01:40:00,
2013-02-11 19:45:00,31.8,21.7,29.89,NNW,328,12.0,15.0,66,0.00,,,0.00,Wunderground v.1.15,2013-02-12 01:45:00,
2013-02-11 19:50:00,31.8,21.7,29.89,NW,304,13.0,15.0,66,0.00,,,0.00,Wunderground v.1.15,2013-02-12 01:50:00,
2013-02-11 19:55:00,31.8,22.1,29.89,WNW,284,12.0,15.0,67,0.00,,,0.00,Wunderground v.1.15,2013-02-12 01:55:00,
2013-02-11 20:00:00,31.8,21.7,29.89,West,270,12.0,12.0,66,0.00,,,0.00,Wunderground v.1.15,2013-02-12 02:00:00,
2013-02-11 20:05:00,31.8,22.1,29.89,WNW,296,12.0,12.0,67,0.00,,,0.00,Wunderground v.1.15,2013-02-12 02:05:00,
2013-02-11 20:10:00,31.6,21.9,29.89,NW,311,12.0,22.0,67,0.00,,,0.00,Wunderground v.1.15,2013-02-12 02:10:00,
2013-02-11 20:15:00,31.6,21.5,29.90,NNW,338,13.0,22.0,66,0.00,,,0.00,Wunderground v.1.15,2013-02-12 02:15:00,
2013-02-11 20:20:00,31.6,21.2,29.90,NW,318,13.0,13.0,65,0.00,,,0.00,Wunderground v.1.15,2013-02-12 02:20:00,
2013-02-11 20:25:00,31.6,21.5,29.90,NNW,346,13.0,13.0,66,0.00,,,0.00,Wunderground v.1.15,2013-02-12 02:25:00,
2013-02-11 20:30:00,31.5,21.4,29.90,NW,310,13.0,16.0,66,0.00,,,0.00,Wunderground v.1.15,2013-02-12 02:30:00,
2013-02-11 20:35:00,31.6,21.9,29.90,WSW,256,12.0,16.0,67,0.00,,,0.00,Wunderground v.1.15,2013-02-12 02:35:00,
2013-02-11 20:45:00,31.5,21.8,29.91,NW,323,11.0,11.0,67,0.00,,,0.00,Wunderground v.1.15,2013-02-12 02:45:00,
2013-02-11 20:50:00,31.2,21.2,29.91,WNW,294,13.0,19.0,66,0.00,,,0.00,Wunderground v.1.15,2013-02-12 02:50:00,
2013-02-11 20:55:00,31.2,20.8,29.91,NNW,327,13.0,19.0,65,0.00,,,0.00,Wunderground v.1.15,2013-02-12 02:55:00,
2013-02-11 21:00:00,31.2,21.2,29.91,NNW,329,13.0,22.0,66,0.00,,,0.00,Wunderground v.1.15,2013-02-12 03:00:00,
2013-02-11 21:05:00,31.2,21.2,29.91,NW,325,15.0,22.0,66,0.00,,,0.00,Wunderground v.1.15,2013-02-12 03:05:00,
2013-02-11 21:10:00,31.2,21.5,29.91,NW,324,14.0,14.0,67,0.00,,,0.00,Wunderground v.1.15,2013-02-12 03:10:00,
2013-02-11 21:15:00,31.0,21.3,29.92,NW,314,15.0,15.0,67,0.00,,,0.00,Wunderground v.1.15,2013-02-12 03:15:00,
2013-02-11 21:20:00,30.9,20.9,29.92,NW,305,15.0,15.0,66,0.00,,,0.00,Wunderground v.1.15,2013-02-12 03:20:00,
2013-02-11 21:25:00,30.9,20.9,29.92,NNW,338,14.0,15.0,66,0.00,,,0.00,Wunderground v.1.15,2013-02-12 03:25:00,
2013-02-11 21:30:00,30.7,20.3,29.92,NW,318,14.0,14.0,65,0.00,,,0.00,Wunderground v.1.15,2013-02-12 03:30:00,
2013-02-11 21:35:00,30.7,20.3,29.92,WNW,299,14.0,14.0,65,0.00,,,0.00,Wunderground v.1.15,2013-02-12 03:35:00,
2013-02-11 21:40:00,30.7,20.3,29.92,NNW,328,15.0,15.0,65,0.00,,,0.00,Wunderground v.1.15,2013-02-12 03:40:00,
2013-02-11 21:45:00,30.7,20.7,29.92,NNW,338,14.0,15.0,66,0.00,,,0.00,Wunderground v.1.15,2013-02-12 03:45:00,
2013-02-11 21:50:00,30.7,20.7,29.92,NW,313,14.0,14.0,66,0.00,,,0.00,Wunderground v.1.15,2013-02-12 03:50:00,
2013-02-11 21:55:00,30.7,21.0,29.92,NW,320,14.0,14.0,67,0.00,,,0.00,Wunderground v.1.15,2013-02-12 03:55:00,
2013-02-11 22:00:00,30.7,21.0,29.92,NNW,337,14.0,15.0,67,0.00,,,0.00,Wunderground v.1.15,2013-02-12 04:00:00,
2013-02-11 22:05:00,30.7,21.0,29.92,NNW,340,13.0,17.0,67,0.00,,,0.00,Wunderground v.1.15,2013-02-12 04:05:00,
2013-02-11 22:10:00,30.7,21.4,29.92,NW,323,13.0,13.0,68,0.00,,,0.00,Wunderground v.1.15,2013-02-12 04:10:00,
2013-02-11 22:15:00,30.7,21.4,29.93,NW,318,12.0,13.0,68,0.00,,,0.00,Wunderground v.1.15,2013-02-12 04:15:00,
2013-02-11 22:20:00,30.7,21.4,29.93,NW,319,11.0,16.0,68,0.00,,,0.00,Wunderground v.1.15,2013-02-12 04:20:00,
2013-02-11 22:24:00,30.7,21.0,29.93,NW,321,13.0,16.0,67,0.00,,,0.00,Wunderground v.1.15,2013-02-12 04:24:00,
2013-02-11 22:30:00,30.6,21.3,29.93,WNW,301,12.0,18.0,68,0.00,,,0.00,Wunderground v.1.15,2013-02-12 04:30:00,
2013-02-11 22:35:00,30.7,21.0,29.93,NNW,332,12.0,19.0,67,0.00,,,0.00,Wunderground v.1.15,2013-02-12 04:35:00,
2013-02-11 22:40:00,30.7,20.7,29.93,NNW,335,13.0,14.0,66,0.00,,,0.00,Wunderground v.1.15,2013-02-12 04:40:00,
2013-02-11 22:45:00,30.6,20.9,29.94,WNW,284,13.0,14.0,67,0.00,,,0.00,Wunderground v.1.15,2013-02-12 04:45:00,
2013-02-11 22:50:00,30.7,20.7,29.94,NNW,335,13.0,13.0,66,0.00,,,0.00,Wunderground v.1.15,2013-02-12 04:50:00,
2013-02-11 22:55:00,30.7,20.7,29.94,NW,317,13.0,13.0,66,0.00,,,0.00,Wunderground v.1.15,2013-02-12 04:55:00,
2013-02-11 23:00:00,30.7,20.7,29.94,NNW,336,16.0,16.0,66,0.00,,,0.00,Wunderground v.1.15,2013-02-12 05:00:00,
2013-02-11 23:05:00,30.7,20.7,29.94,NNW,330,16.0,16.0,66,0.00,,,0.00,Wunderground v.1.15,2013-02-12 05:05:00,
2013-02-11 23:10:00,30.7,21.0,29.94,NNW,329,13.0,13.0,67,0.00,,,0.00,Wunderground v.1.15,2013-02-12 05:10:00,
2013-02-11 23:15:00,30.7,21.0,29.95,NW,323,11.0,13.0,67,0.00,,,0.00,Wunderground v.1.15,2013-02-12 05:15:00,
2013-02-11 23:20:00,30.7,21.4,29.95,NNW,327,9.0,9.0,68,0.00,,,0.00,Wunderground v.1.15,2013-02-12 05:20:00,
2013-02-11 23:24:00,30.7,21.4,29.95,NNW,336,9.0,17.0,68,0.00,,,0.00,Wunderground v.1.15,2013-02-12 05:24:00,
2013-02-11 23:30:00,30.9,22.3,29.95,North,350,9.0,9.0,70,0.00,,,0.00,Wunderground v.1.15,2013-02-12 05:30:00,
2013-02-11 23:35:00,30.7,22.1,29.95,WNW,292,8.0,9.0,70,0.00,,,0.00,Wunderground v.1.15,2013-02-12 05:35:00,
2013-02-11 23:40:00,30.6,22.0,29.95,NNW,337,9.0,10.0,70,0.00,,,0.00,Wunderground v.1.15,2013-02-12 05:40:00,
2013-02-11 23:45:00,30.4,21.4,29.96,NW,323,10.0,10.0,69,0.00,,,0.00,Wunderground v.1.15,2013-02-12 05:45:00,
2013-02-11 23:50:00,30.3,21.3,29.96,North,350,10.0,10.0,69,0.00,,,0.00,Wunderground v.1.15,2013-02-12 05:50:00,
2013-02-11 23:55:00,30.3,21.7,29.96,WNW,300,11.0,16.0,70,0.00,,,0.00,Wunderground v.1.15,2013-02-12 05:55:00,